createdAt,value
2023-02-12T00:01:18.616Z,7.96
2023-02-12T00:03:45.195Z,8.62
2023-02-12T00:06:15.733Z,8.56
2023-02-12T00:08:42.949Z,8.44
2023-02-12T00:11:13.509Z,8.65
2023-02-12T00:13:40.456Z,8.11
2023-02-12T00:16:09.485Z,8.65
2023-02-12T00:18:37.163Z,8.31
2023-02-12T00:21:04.433Z,8.48
2023-02-12T00:23:31.508Z,7.96
2023-02-12T00:25:58.306Z,8.39
2023-02-12T00:28:26.851Z,8.12
2023-02-12T00:30:55.265Z,8.47
2023-02-12T00:33:22.061Z,8.49
2023-02-12T00:35:58.638Z,8.43
2023-02-12T00:38:25.230Z,8.32
2023-02-12T00:40:52.000Z,8.26
2023-02-12T00:43:18.633Z,7.86
2023-02-12T00:45:46.362Z,8.53
2023-02-12T00:48:14.377Z,8.26
2023-02-12T00:50:41.627Z,8.50
2023-02-12T00:53:08.332Z,8.33
2023-02-12T00:55:35.370Z,8.36
2023-02-12T00:58:02.086Z,7.91
2023-02-12T01:00:28.869Z,8.23
2023-02-12T01:02:56.821Z,8.18
2023-02-12T01:05:23.821Z,7.81
2023-02-12T01:07:53.660Z,8.27
2023-02-12T01:10:21.002Z,8.03
2023-02-12T01:12:48.633Z,8.45
2023-02-12T01:15:16.217Z,7.84
2023-02-12T01:17:43.286Z,7.92
2023-02-12T01:20:13.627Z,8.47
2023-02-12T01:22:40.433Z,7.86
2023-02-12T01:25:07.672Z,7.95
2023-02-12T01:27:34.248Z,7.95
2023-02-12T01:30:00.830Z,8.30
2023-02-12T01:32:27.575Z,8.44
2023-02-12T01:34:54.233Z,8.23
2023-02-12T01:37:21.843Z,7.92
2023-02-12T01:39:48.401Z,8.31
2023-02-12T01:42:18.609Z,8.45
2023-02-12T01:45:13.871Z,8.46
2023-02-12T01:47:45.405Z,8.29
2023-02-12T01:50:16.573Z,8.50
2023-02-12T01:52:48.386Z,8.42
2023-02-12T01:55:15.825Z,8.24
2023-02-12T01:57:45.938Z,7.63
2023-02-12T02:00:30.829Z,8.05
2023-02-12T02:03:01.931Z,8.27
2023-02-12T02:05:47.994Z,8.28
2023-02-12T02:08:15.039Z,7.87
2023-02-12T02:10:41.958Z,7.83
2023-02-12T02:13:27.318Z,7.88
2023-02-12T02:15:59.890Z,7.42
2023-02-12T02:18:29.186Z,8.35
2023-02-12T02:21:07.795Z,8.31
2023-02-12T02:23:39.558Z,8.27
2023-02-12T02:26:33.390Z,8.22
2023-02-12T02:29:20.404Z,8.05
2023-02-12T02:32:02.871Z,7.58
2023-02-12T02:34:39.856Z,8.06
2023-02-12T02:37:51.031Z,8.22
2023-02-12T02:40:27.050Z,7.97
2023-02-12T02:43:04.552Z,7.72
2023-02-12T02:45:43.241Z,8.07
2023-02-12T02:48:18.650Z,7.43
2023-02-12T02:50:51.554Z,7.80
2023-02-12T02:53:28.298Z,7.58
2023-02-12T02:55:58.873Z,7.70
2023-02-12T02:58:32.535Z,7.96
2023-02-12T03:01:05.972Z,7.62
2023-02-12T03:03:38.225Z,7.35
2023-02-12T03:06:13.505Z,7.79
2023-02-12T03:08:44.663Z,6.99
2023-02-12T03:11:17.027Z,7.67
2023-02-12T03:13:49.507Z,7.24
2023-02-12T03:16:27.690Z,7.73
2023-02-12T03:19:02.306Z,7.30
2023-02-12T03:21:51.791Z,7.83
2023-02-12T03:24:32.984Z,7.78
2023-02-12T03:27:07.320Z,7.78
2023-02-12T03:29:34.137Z,7.44
2023-02-12T03:32:09.944Z,7.32
2023-02-12T03:34:45.062Z,7.37
2023-02-12T03:37:24.669Z,7.87
2023-02-12T03:40:11.386Z,7.86
2023-02-12T03:42:48.402Z,7.64
2023-02-12T03:45:42.346Z,7.18
2023-02-12T03:48:15.101Z,7.86
2023-02-12T03:50:50.924Z,7.89
2023-02-12T03:53:17.608Z,7.79
2023-02-12T03:55:48.797Z,7.65
2023-02-12T03:58:21.440Z,7.88
2023-02-12T04:00:48.042Z,7.91
2023-02-12T04:03:14.736Z,7.68
2023-02-12T04:05:41.342Z,7.76
2023-02-12T04:08:11.209Z,7.38
2023-02-12T04:11:13.239Z,7.91
2023-02-12T04:13:52.587Z,7.85
2023-02-12T04:16:43.816Z,7.85
2023-02-12T04:19:14.933Z,7.74
2023-02-12T04:21:53.955Z,7.80
2023-02-12T04:25:03.415Z,7.86
2023-02-12T04:27:47.839Z,7.67
2023-02-12T04:30:24.989Z,7.99
2023-02-12T04:32:57.076Z,7.54
2023-02-12T04:35:34.917Z,8.02
2023-02-12T04:38:10.646Z,7.82
2023-02-12T04:40:40.765Z,7.75
2023-02-12T04:43:07.610Z,7.99
2023-02-12T04:45:37.089Z,7.59
2023-02-12T04:48:04.548Z,8.07
2023-02-12T04:50:39.772Z,7.86
2023-02-12T04:53:06.389Z,7.98
2023-02-12T04:55:33.031Z,7.63
2023-02-12T04:57:59.638Z,7.51
2023-02-12T05:00:26.313Z,7.92
2023-02-12T05:02:52.803Z,7.97
2023-02-12T05:05:19.479Z,7.44
2023-02-12T05:07:46.193Z,7.77
2023-02-12T05:10:12.768Z,7.49
2023-02-12T05:12:39.335Z,7.39
2023-02-12T05:15:06.483Z,8.02
2023-02-12T05:17:33.280Z,7.99
2023-02-12T05:19:59.807Z,7.93
2023-02-12T05:22:26.334Z,7.53
2023-02-12T05:24:52.941Z,7.57
2023-02-12T05:27:19.523Z,7.87
2023-02-12T05:29:46.083Z,7.22
2023-02-12T05:32:12.838Z,7.58
2023-02-12T05:34:39.342Z,7.26
2023-02-12T05:37:06.030Z,8.05
2023-02-12T05:39:32.606Z,7.43
2023-02-12T05:41:59.168Z,8.10
2023-02-12T05:44:25.756Z,7.95
2023-02-12T05:46:52.324Z,7.49
2023-02-12T05:49:18.887Z,7.15
2023-02-12T05:51:45.540Z,7.63
2023-02-12T05:54:12.161Z,7.53
2023-02-12T05:56:44.108Z,7.91
2023-02-12T05:59:20.729Z,7.93
2023-02-12T06:01:48.504Z,7.96
2023-02-12T06:04:27.936Z,8.01
2023-02-12T06:06:55.954Z,7.70
2023-02-12T06:09:23.034Z,7.73
2023-02-12T06:11:49.589Z,7.66
2023-02-12T06:14:18.334Z,7.38
2023-02-12T06:16:49.911Z,8.00
2023-02-12T06:19:17.179Z,7.40
2023-02-12T06:21:44.362Z,7.48
2023-02-12T06:24:12.919Z,7.30
2023-02-12T06:26:39.772Z,7.94
2023-02-12T06:29:06.339Z,7.99
2023-02-12T06:31:35.597Z,8.03
2023-02-12T06:34:05.582Z,8.03
2023-02-12T06:36:32.883Z,7.80
2023-02-12T06:39:02.685Z,7.93
2023-02-12T06:41:29.701Z,7.53
2023-02-12T06:43:56.262Z,7.57
2023-02-12T06:46:23.348Z,8.06
2023-02-12T06:48:53.713Z,7.96
2023-02-12T06:51:21.846Z,7.90
2023-02-12T06:53:48.565Z,7.94
2023-02-12T06:56:15.174Z,7.84
2023-02-12T06:58:44.321Z,8.01
2023-02-12T07:01:17.810Z,7.39
2023-02-12T07:03:50.536Z,7.93
2023-02-12T07:06:18.200Z,7.79
2023-02-12T07:08:44.825Z,7.95
2023-02-12T07:11:11.817Z,7.44
2023-02-12T07:13:43.210Z,7.37
2023-02-12T07:16:12.390Z,7.34
2023-02-12T07:18:39.992Z,7.43
2023-02-12T07:21:08.445Z,7.32
2023-02-12T07:23:35.827Z,7.95
2023-02-12T07:26:08.761Z,7.45
2023-02-12T07:28:35.745Z,8.05
2023-02-12T07:31:23.293Z,8.15
2023-02-12T07:33:53.778Z,7.61
2023-02-12T07:36:20.896Z,8.21
2023-02-12T07:38:47.595Z,8.26
2023-02-12T07:41:25.706Z,8.27
2023-02-12T07:44:14.683Z,8.33
2023-02-12T07:49:36.781Z,8.37
2023-02-12T07:52:03.354Z,8.35
2023-02-12T07:54:29.824Z,8.33
2023-02-12T07:56:56.386Z,8.33
2023-02-12T07:59:22.959Z,8.37
2023-02-12T08:01:52.250Z,8.39
2023-02-12T08:04:22.167Z,8.60
2023-02-12T08:06:51.325Z,8.59
2023-02-12T08:09:20.984Z,8.16
2023-02-12T08:11:48.784Z,8.66
2023-02-12T08:14:17.894Z,8.28
2023-02-12T08:16:46.056Z,8.25
2023-02-12T08:19:20.942Z,8.59
2023-02-12T08:21:51.413Z,8.64
2023-02-12T08:24:18.153Z,8.75
2023-02-12T08:26:45.147Z,8.80
2023-02-12T08:29:15.041Z,8.85
2023-02-12T08:31:44.706Z,8.69
2023-02-12T08:34:22.695Z,8.87
2023-02-12T08:36:50.940Z,8.45
2023-02-12T08:39:18.785Z,8.97
2023-02-12T08:41:46.075Z,8.46
2023-02-12T08:44:13.506Z,8.95
2023-02-12T08:46:46.642Z,8.42
2023-02-12T08:49:22.258Z,8.52
2023-02-12T08:51:51.148Z,9.07
2023-02-12T08:54:20.812Z,9.06
2023-02-12T08:56:47.370Z,9.17
2023-02-12T08:59:15.664Z,9.22
2023-02-12T09:01:43.513Z,9.20
2023-02-12T09:04:17.706Z,9.31
2023-02-12T09:06:45.121Z,9.39
2023-02-12T09:09:11.642Z,9.39
2023-02-12T09:11:38.240Z,8.94
2023-02-12T09:14:07.249Z,9.57
2023-02-12T09:16:35.454Z,9.07
2023-02-12T09:19:02.858Z,8.88
2023-02-12T09:21:29.434Z,9.65
2023-02-12T09:23:56.233Z,9.69
2023-02-12T09:26:25.751Z,9.44
2023-02-12T09:28:52.975Z,9.76
2023-02-12T09:31:28.330Z,9.84
2023-02-12T09:33:58.928Z,10.00
2023-02-12T09:36:25.737Z,10.02
2023-02-12T09:38:54.116Z,10.13
2023-02-12T09:41:46.943Z,10.15
2023-02-12T09:44:31.754Z,10.17
2023-02-12T09:47:19.521Z,10.29
2023-02-12T09:50:10.039Z,10.30
2023-02-12T09:52:37.324Z,10.27
2023-02-12T09:55:04.693Z,10.33
2023-02-12T09:57:36.554Z,10.34
2023-02-12T10:00:09.342Z,10.38
2023-02-12T10:02:38.029Z,10.32
2023-02-12T10:05:06.646Z,10.41
2023-02-12T10:07:51.917Z,10.35
2023-02-12T10:11:00.563Z,10.38
2023-02-12T10:14:05.427Z,10.50
2023-02-12T10:16:37.958Z,10.67
2023-02-12T10:19:17.017Z,10.66
2023-02-12T10:22:25.100Z,10.75
2023-02-12T10:25:06.481Z,10.91
2023-02-12T10:27:47.236Z,11.00
2023-02-12T10:30:21.037Z,11.01
2023-02-12T10:32:51.598Z,11.05
2023-02-12T10:35:21.066Z,11.30
2023-02-12T10:38:02.945Z,11.37
2023-02-12T10:40:33.942Z,10.67
2023-02-12T10:43:02.798Z,11.13
2023-02-12T10:45:40.263Z,11.61
2023-02-12T10:48:31.392Z,11.87
2023-02-12T10:51:30.459Z,12.09
2023-02-12T10:53:57.048Z,11.82
2023-02-12T10:56:25.343Z,12.33
2023-02-12T10:59:00.282Z,12.36
2023-02-12T11:01:28.252Z,12.31
2023-02-12T11:03:57.322Z,12.41
2023-02-12T11:06:29.955Z,12.58
2023-02-12T11:08:57.267Z,12.63
2023-02-12T11:11:38.272Z,12.23
2023-02-12T11:14:17.545Z,12.71
2023-02-12T11:16:52.170Z,12.66
2023-02-12T11:19:23.526Z,12.81
2023-02-12T11:21:50.963Z,12.74
2023-02-12T11:24:31.873Z,12.48
2023-02-12T11:27:16.754Z,12.94
2023-02-12T11:29:44.558Z,12.77
2023-02-12T11:32:20.042Z,12.69
2023-02-12T11:35:35.116Z,12.66
2023-02-12T11:38:03.445Z,12.17
2023-02-12T11:40:33.768Z,12.36
2023-02-12T11:43:06.851Z,11.98
2023-02-12T11:45:49.805Z,12.50
2023-02-12T11:48:20.985Z,12.08
2023-02-12T11:50:50.706Z,12.42
2023-02-12T11:53:25.568Z,12.23
2023-02-12T11:55:55.673Z,12.48
2023-02-12T11:58:24.913Z,12.26
2023-02-12T12:01:05.661Z,12.81
2023-02-12T12:03:58.356Z,12.95
2023-02-12T12:06:49.793Z,13.02
2023-02-12T12:09:29.825Z,12.98
2023-02-12T12:12:34.137Z,12.81
2023-02-12T12:15:26.352Z,12.60
2023-02-12T12:18:21.140Z,12.25
2023-02-12T12:20:55.337Z,12.61
2023-02-12T12:23:35.591Z,12.58
2023-02-12T12:26:12.869Z,12.27
2023-02-12T12:28:51.441Z,12.30
2023-02-12T12:31:25.845Z,12.53
2023-02-12T12:34:12.380Z,12.57
2023-02-12T12:36:57.841Z,12.59
2023-02-12T12:39:36.882Z,12.39
2023-02-12T12:42:15.631Z,12.22
2023-02-12T12:44:51.245Z,12.20
2023-02-12T12:47:31.824Z,12.00
2023-02-12T12:50:20.495Z,12.18
2023-02-12T12:52:59.373Z,12.16
2023-02-12T12:55:59.780Z,12.14
2023-02-12T12:58:32.361Z,12.18
2023-02-12T13:01:02.051Z,12.07
2023-02-12T13:03:44.035Z,11.89
2023-02-12T13:06:21.084Z,12.02
2023-02-12T13:08:58.799Z,12.02
2023-02-12T13:11:49.794Z,12.02
2023-02-12T13:14:27.594Z,11.99
2023-02-12T13:17:30.443Z,11.94
2023-02-12T13:20:08.273Z,11.96
2023-02-12T13:22:49.089Z,11.93
2023-02-12T13:25:22.695Z,11.96
2023-02-12T13:27:51.926Z,11.80
2023-02-12T13:30:23.731Z,11.39
2023-02-12T13:33:24.549Z,11.82
2023-02-12T13:36:00.468Z,11.61
2023-02-12T13:38:32.456Z,11.21
2023-02-12T13:41:04.716Z,11.28
2023-02-12T13:43:49.021Z,11.36
2023-02-12T13:46:55.919Z,11.31
2023-02-12T13:49:33.974Z,11.86
2023-02-12T13:52:09.669Z,11.83
2023-02-12T13:55:11.422Z,11.82
2023-02-12T13:57:38.175Z,11.37
2023-02-12T14:00:08.910Z,11.59
2023-02-12T14:02:38.716Z,11.73
2023-02-12T14:05:20.942Z,11.27
2023-02-12T14:07:54.062Z,11.65
2023-02-12T14:10:25.672Z,11.61
2023-02-12T14:12:55.519Z,11.51
2023-02-12T14:15:35.013Z,11.58
2023-02-12T14:18:29.660Z,11.59
2023-02-12T14:21:11.038Z,11.61
2023-02-12T14:23:44.754Z,11.56
2023-02-12T14:26:12.808Z,11.42
2023-02-12T14:29:01.897Z,11.48
2023-02-12T14:31:37.339Z,10.99
2023-02-12T14:34:07.474Z,11.46
2023-02-12T14:36:38.830Z,11.45
2023-02-12T14:39:29.543Z,11.46
2023-02-12T14:42:16.031Z,11.44
2023-02-12T14:44:57.190Z,11.24
2023-02-12T14:47:29.918Z,11.41
2023-02-12T14:50:02.605Z,10.88
2023-02-12T14:52:31.125Z,11.26
2023-02-12T14:55:02.609Z,10.65
2023-02-12T14:57:37.489Z,11.16
2023-02-12T15:00:28.357Z,11.12
2023-02-12T15:03:02.516Z,10.90
2023-02-12T15:05:34.514Z,11.19
2023-02-12T15:08:18.110Z,10.51
2023-02-12T15:10:52.596Z,10.53
2023-02-12T15:13:22.198Z,11.17
2023-02-12T15:16:02.623Z,10.89
2023-02-12T15:19:01.942Z,10.63
2023-02-12T15:21:33.203Z,10.94
2023-02-12T15:24:08.287Z,11.12
2023-02-12T15:26:45.258Z,10.88
2023-02-12T15:29:36.337Z,11.03
2023-02-12T15:32:06.386Z,10.95
2023-02-12T15:34:37.904Z,10.80
2023-02-12T15:37:07.399Z,10.48
2023-02-12T15:39:44.079Z,10.53
2023-02-12T15:42:24.284Z,10.84
2023-02-12T15:44:51.053Z,10.78
2023-02-12T15:47:24.739Z,10.56
2023-02-12T15:49:51.296Z,10.60
2023-02-12T15:52:21.992Z,9.99
2023-02-12T15:54:49.176Z,10.48
2023-02-12T15:57:23.968Z,10.42
2023-02-12T15:59:53.215Z,10.52
2023-02-12T16:02:32.877Z,9.96
2023-02-12T16:05:02.208Z,9.99
2023-02-12T16:07:35.038Z,9.90
2023-02-12T16:10:02.760Z,10.31
2023-02-12T16:12:33.653Z,10.21
2023-02-12T16:15:00.899Z,10.17
2023-02-12T16:17:38.112Z,10.04
2023-02-12T16:20:08.758Z,9.66
2023-02-12T16:22:40.890Z,10.08
2023-02-12T16:25:37.648Z,10.18
2023-02-12T16:28:15.600Z,10.07
2023-02-12T16:30:44.188Z,9.92
2023-02-12T16:33:40.799Z,10.09
2023-02-12T16:36:14.202Z,9.55
2023-02-12T16:38:46.726Z,9.58
2023-02-12T16:41:25.274Z,10.01
2023-02-12T16:44:17.940Z,10.00
2023-02-12T16:46:48.605Z,9.98
2023-02-12T16:49:20.176Z,9.93
2023-02-12T16:51:47.895Z,9.86
2023-02-12T16:54:33.141Z,9.91
2023-02-12T16:57:00.342Z,9.89
2023-02-12T16:59:27.451Z,9.70
2023-02-12T17:02:10.626Z,9.62
2023-02-12T17:04:37.293Z,9.53
2023-02-12T17:07:04.134Z,9.18
2023-02-12T17:09:30.864Z,9.64
2023-02-12T17:11:57.516Z,9.24
2023-02-12T17:14:24.197Z,9.58
2023-02-12T17:16:50.779Z,9.67
2023-02-12T17:19:17.341Z,9.09
2023-02-12T17:21:49.288Z,9.22
2023-02-12T17:24:24.642Z,9.53
2023-02-12T17:26:51.518Z,9.49
2023-02-12T17:29:19.317Z,9.51
2023-02-12T17:31:47.895Z,9.63
2023-02-12T17:34:15.804Z,9.08
2023-02-12T17:36:42.746Z,9.18
2023-02-12T17:39:11.966Z,9.13
2023-02-12T17:41:39.283Z,9.09
2023-02-12T17:44:06.059Z,9.38
2023-02-12T17:46:33.625Z,9.43
2023-02-12T17:49:00.415Z,9.58
2023-02-12T17:51:27.211Z,9.52
2023-02-12T17:53:53.770Z,9.48
2023-02-12T17:56:22.875Z,9.45
2023-02-12T17:58:49.799Z,8.99
2023-02-12T18:01:19.366Z,9.56
2023-02-12T18:03:46.131Z,9.34
2023-02-12T18:06:16.277Z,9.55
2023-02-12T18:08:43.474Z,8.97
2023-02-12T18:11:11.479Z,8.61
2023-02-12T18:13:39.268Z,9.05
2023-02-12T18:16:08.134Z,9.44
2023-02-12T18:18:35.902Z,8.96
2023-02-12T18:21:10.398Z,8.90
2023-02-12T18:23:38.336Z,9.35
2023-02-12T18:26:13.959Z,9.25
2023-02-12T18:28:40.840Z,9.33
2023-02-12T18:31:08.255Z,9.34
2023-02-12T18:33:35.601Z,9.25
2023-02-12T18:36:08.770Z,9.38
2023-02-12T18:38:37.019Z,9.13
2023-02-12T18:41:09.743Z,9.40
2023-02-12T18:43:37.054Z,9.22
2023-02-12T18:46:08.386Z,9.39
2023-02-12T18:48:35.393Z,8.91
2023-02-12T18:51:03.966Z,9.11
2023-02-12T18:53:31.023Z,9.38
2023-02-12T18:55:57.769Z,8.85
2023-02-12T18:58:24.920Z,8.86
2023-02-12T19:00:51.543Z,9.29
2023-02-12T19:03:18.111Z,8.73
2023-02-12T19:05:44.712Z,9.20
2023-02-12T19:08:11.672Z,8.89
2023-02-12T19:10:39.578Z,9.13
2023-02-12T19:13:06.387Z,8.86
2023-02-12T19:15:32.931Z,9.11
2023-02-12T19:17:59.542Z,9.18
2023-02-12T19:20:26.158Z,9.16
2023-02-12T19:22:52.697Z,9.14
2023-02-12T19:25:19.388Z,9.23
2023-02-12T19:27:45.994Z,8.76
2023-02-12T19:30:13.029Z,8.93
2023-02-12T19:32:39.683Z,8.80
2023-02-12T19:35:06.620Z,9.31
2023-02-12T19:37:33.280Z,8.91
2023-02-12T19:39:59.874Z,9.26
2023-02-12T19:42:26.553Z,9.10
2023-02-12T19:44:53.121Z,8.86
2023-02-12T19:47:19.672Z,8.86
2023-02-12T19:49:46.241Z,9.00
2023-02-12T19:52:12.812Z,9.11
2023-02-12T19:54:39.391Z,8.68
2023-02-12T19:57:09.147Z,9.23
2023-02-12T19:59:36.323Z,9.13
2023-02-12T20:02:03.838Z,9.16
2023-02-12T20:04:30.965Z,9.12
2023-02-12T20:06:57.865Z,9.32
2023-02-12T20:09:24.905Z,9.24
2023-02-12T20:11:53.253Z,8.88
2023-02-12T20:14:22.487Z,8.76
2023-02-12T20:16:50.502Z,9.12
2023-02-12T20:19:23.947Z,9.21
2023-02-12T20:21:55.214Z,8.99
2023-02-12T20:24:31.218Z,8.76
2023-02-12T20:27:00.217Z,8.78
2023-02-12T20:29:27.008Z,9.29
2023-02-12T20:31:53.841Z,9.25
2023-02-12T20:34:22.003Z,9.14
2023-02-12T20:36:48.774Z,8.67
2023-02-12T20:39:17.833Z,9.23
2023-02-12T20:41:44.440Z,8.96
2023-02-12T20:44:16.010Z,9.22
2023-02-12T20:46:54.506Z,8.59
2023-02-12T20:49:25.166Z,8.71
2023-02-12T20:51:52.563Z,9.05
2023-02-12T20:54:19.198Z,8.92
2023-02-12T20:56:45.749Z,9.16
2023-02-12T20:59:12.515Z,9.12
2023-02-12T21:01:41.700Z,7.74
2023-02-12T21:04:14.517Z,8.81
2023-02-12T21:06:41.978Z,9.10
2023-02-12T21:09:10.018Z,9.11
2023-02-12T21:11:37.203Z,8.62
2023-02-12T21:14:20.802Z,8.86
2023-02-12T21:16:48.527Z,8.98
2023-02-12T21:19:15.231Z,9.00
2023-02-12T21:21:45.142Z,9.05
2023-02-12T21:24:15.054Z,9.02
2023-02-12T21:26:41.859Z,8.75
2023-02-12T21:29:08.506Z,8.97
2023-02-12T21:31:39.844Z,8.44
2023-02-12T21:34:08.129Z,8.83
2023-02-12T21:36:37.613Z,8.89
2023-02-12T21:39:06.136Z,8.90
2023-02-12T21:41:35.722Z,8.40
2023-02-12T21:44:06.271Z,8.34
2023-02-12T21:46:34.721Z,8.59
2023-02-12T21:49:01.777Z,8.80
2023-02-12T21:51:31.824Z,8.60
2023-02-12T21:54:02.385Z,8.26
2023-02-12T21:56:29.318Z,8.60
2023-02-12T21:58:58.051Z,8.17
2023-02-12T22:01:28.848Z,8.66
2023-02-12T22:03:55.727Z,8.59
2023-02-12T22:06:24.639Z,8.50
2023-02-12T22:08:52.783Z,8.34
2023-02-12T22:11:21.270Z,8.66
2023-02-12T22:13:48.317Z,8.03
2023-02-12T22:16:19.097Z,8.58
2023-02-12T22:18:47.717Z,8.35
2023-02-12T22:21:16.027Z,8.43
2023-02-12T22:23:43.802Z,8.29
2023-02-12T22:26:22.149Z,8.44
2023-02-12T22:28:57.794Z,7.94
2023-02-12T22:31:28.494Z,8.53
2023-02-12T22:33:58.126Z,8.52
2023-02-12T22:36:25.256Z,8.40
2023-02-12T22:38:53.701Z,8.34
2023-02-12T22:41:21.161Z,8.04
2023-02-12T22:43:48.306Z,8.45
2023-02-12T22:46:16.166Z,8.01
2023-02-12T22:48:43.154Z,7.99
2023-02-12T22:51:12.500Z,7.96
2023-02-12T22:53:39.065Z,8.40
2023-02-12T22:56:06.594Z,8.47
2023-02-12T22:58:34.147Z,8.54
2023-02-12T23:01:16.614Z,8.47
2023-02-12T23:03:44.456Z,8.55
2023-02-12T23:06:13.891Z,8.43
2023-02-12T23:08:40.910Z,8.25
2023-02-12T23:11:08.651Z,8.11
2023-02-12T23:13:35.998Z,7.60
2023-02-12T23:16:03.468Z,8.15
2023-02-12T23:18:30.565Z,8.43
2023-02-12T23:20:57.581Z,8.33
2023-02-12T23:23:24.440Z,8.21
2023-02-12T23:25:51.494Z,8.47
2023-02-12T23:28:18.071Z,7.90
2023-02-12T23:30:44.818Z,8.33
2023-02-12T23:33:11.498Z,8.35
2023-02-12T23:35:38.359Z,8.07
2023-02-12T23:38:05.367Z,8.11
2023-02-12T23:40:33.160Z,8.22
2023-02-12T23:43:00.088Z,8.19
2023-02-12T23:45:28.154Z,8.11
2023-02-12T23:47:55.284Z,7.53
2023-02-12T23:50:22.058Z,8.11
2023-02-12T23:52:48.702Z,7.92
2023-02-12T23:55:15.861Z,8.01
2023-02-12T23:57:42.424Z,7.76
